Kezdőlap
METAR-TAF:

METAR-TAF

Repülőterek :

Jendouba, Tunézia

földrajzi szélesség: 36-29N, földrajzi hosszúság: 008-48E, magasság: 143 m

Jelenlegi meteorológiai megfigyelések

A jelentés 1 órával és 4 perccel ezelõtt készült, 12:00 UTC
Déli szél 3 kt, kelet-délkeleti és délnyugati között változik
Hőmérséklet 13°C
Páratartalom 77%
Légköri nyomás 1014 hPa
Látótávolság 10 km, vagy több
Szórványos felhőzet 2000 lábon
Szórványos felhőzet 3000 lábon

METAR: DTTN 291200Z 18003KT 120V230 9999 SCT020 SCT030 13/09 Q1014

Idő: 14:04 (13:04 UTC)


TAF: hiányzik

Meteorológiai megfigyelések és előrejelzések több, mint 4000 repülőtéren (METAR és TAF jelentéseket).

A térképen piros és sárga pontok jelzik az elérhető meteorológiai állomásokat.

Mozgassa az egeret a pont fölött, hogy megjelenjen az állomás neve.

Azután kattintson az időjárási megfigyelések és előrejelzések megtekintéséhez.

A térkép megváltoztatása: kattintson a fekete keresztel jelölt zöld gombra ráközelítéshez, a vonallal jelölt zöld gombra távolításhoz, vagy a zöld nyilakra a szomszédos térképek eléréséhez.


METAR-TAF: